Terminal Aerodrome Forecast
Issued by NWS Binghamton, NY

Home | Current Version | Previous Version | Text Only | Print | Product List | Glossary On
Versions: 1 2 3 4 5 6 7 8 9 10 11 12 13 14 15 16 17 18
000
FTUS41 KBGM 300107 AAA
TAFAVP
TAF AMD
KAVP 300107Z 3001/3024 15004KT P6SM OVC015
     FM300700 VRB03KT P6SM OVC008
     FM301500 20007KT P6SM OVC015=

USA.gov is the U.S. government's official web portal to all federal, state and local government web resources and services.